Time;durP1;ratioP1;P1;durP2;ratioP2;P2;SDS_P1;SDS_P2;PMS_P1;PMS_P2;Temp;Humidity;BMP_temperature;BMP_pressure;BME280_temperature;BME280_humidity;BME280_pressure;Samples;Min_cycle;Max_cycle;Signal;HPM_P1;HPM_P2
2021/07/02 00:03:44;;;;;;;29.13;15.80;;;;;;;14.21;84.14;101587.81;10542009;28;20044;-59
2021/07/02 00:08:46;;;;;;;22.10;13.27;;;;;;;14.18;83.88;101589.78;10541513;28;20055;-59
2021/07/02 00:13:49;;;;;;;25.05;14.73;;;;;;;14.30;84.79;101584.59;10541403;28;20051;-59
2021/07/02 00:18:51;;;;;;;26.45;14.80;;;;;;;14.01;85.23;101585.53;10540942;28;20522;-59
2021/07/02 00:23:53;;;;;;;24.77;14.90;;;;;;;14.20;83.51;101577.38;10540777;28;20487;-59
2021/07/02 00:28:55;;;;;;;23.02;12.70;;;;;;;14.28;82.98;101578.59;10540429;28;20048;-60
2021/07/02 00:33:58;;;;;;;25.38;14.77;;;;;;;14.32;84.69;101579.25;10540479;28;20055;-60
2021/07/02 00:39:00;;;;;;;25.60;15.88;;;;;;;14.23;85.23;101583.28;10540143;28;20048;-59
2021/07/02 00:44:03;;;;;;;23.20;15.45;;;;;;;14.27;86.08;101576.91;10540299;28;20051;-59
2021/07/02 00:49:06;;;;;;;29.30;15.70;;;;;;;14.12;84.18;101568.16;10539895;28;20396;-59
2021/07/02 00:54:10;;;;;;;23.67;13.55;;;;;;;14.26;83.80;101574.38;10539756;28;20044;-60
2021/07/02 00:59:13;;;;;;;31.40;14.82;;;;;;;14.01;85.56;101565.31;10539797;28;20407;-59
2021/07/02 01:04:16;;;;;;;23.02;14.45;;;;;;;14.15;84.45;101566.28;10540120;28;20056;-60
2021/07/02 01:09:23;;;;;;;27.83;15.85;;;;;;;14.01;84.05;101560.03;10540146;28;20056;-60
2021/07/02 01:14:25;;;;;;;28.70;15.20;;;;;;;13.93;85.23;101564.91;10540183;28;20052;-59
2021/07/02 01:19:28;;;;;;;34.25;15.20;;;;;;;13.98;83.85;101559.38;10539218;28;20079;-59
2021/07/02 01:24:30;;;;;;;25.25;13.43;;;;;;;13.77;85.02;101557.09;10539062;28;20056;-60
2021/07/02 01:29:32;;;;;;;21.75;13.98;;;;;;;13.88;83.37;101559.91;10539046;28;20055;-59
2021/07/02 01:34:35;;;;;;;26.50;13.57;;;;;;;13.86;83.98;101566.22;10539377;28;20051;-59
2021/07/02 01:39:37;;;;;;;22.00;12.15;;;;;;;13.89;81.35;101564.25;10539722;28;20047;-59
2021/07/02 01:44:40;;;;;;;25.10;15.23;;;;;;;13.85;85.31;101565.38;10539578;28;20048;-59
2021/07/02 01:49:42;;;;;;;26.90;14.02;;;;;;;13.80;84.77;101569.19;10545629;28;20483;-59
2021/07/02 01:54:44;;;;;;;19.10;12.98;;;;;;;13.89;82.69;101569.50;10545585;28;20051;-59
2021/07/02 01:59:47;;;;;;;27.95;15.35;;;;;;;13.89;82.42;101568.69;10545636;28;20128;-60
2021/07/02 02:04:49;;;;;;;31.23;16.60;;;;;;;13.73;84.73;101551.16;10546371;28;20055;-59
2021/07/02 02:09:53;;;;;;;30.95;15.43;;;;;;;13.88;84.88;101552.00;10546681;28;20052;-59
2021/07/02 02:14:57;;;;;;;22.73;15.18;;;;;;;13.70;85.74;101555.72;10546260;28;20051;-59
2021/07/02 02:19:59;;;;;;;21.92;13.93;;;;;;;13.74;85.47;101549.38;10545625;28;20044;-59
2021/07/02 02:25:02;;;;;;;28.98;16.38;;;;;;;13.64;86.49;101546.41;10545364;28;20048;-59
2021/07/02 02:30:08;;;;;;;25.25;13.55;;;;;;;13.51;84.75;101542.81;10545397;28;20399;-59
2021/07/02 02:35:11;;;;;;;21.83;16.00;;;;;;;13.53;85.57;101548.81;10545753;28;20055;-59
2021/07/02 02:40:13;;;;;;;28.17;15.35;;;;;;;13.59;85.45;101545.84;10544994;28;20040;-59
2021/07/02 02:45:16;;;;;;;23.85;14.63;;;;;;;13.57;85.10;101540.66;10545212;28;20111;-59
2021/07/02 02:50:18;;;;;;;32.35;17.35;;;;;;;13.60;85.36;101538.78;10543484;28;20545;-60
2021/07/02 02:55:21;;;;;;;25.08;16.05;;;;;;;13.46;85.17;101547.50;10544214;28;20132;-60
2021/07/02 03:00:23;;;;;;;28.50;16.95;;;;;;;13.64;85.60;101545.59;10544586;28;20055;-59
2021/07/02 03:05:26;;;;;;;25.95;16.88;;;;;;;13.41;84.53;101544.28;10544087;28;20055;-60
2021/07/02 03:10:29;;;;;;;29.13;18.00;;;;;;;13.62;84.37;101543.03;10544294;28;20530;-59
2021/07/02 03:15:33;;;;;;;35.47;19.90;;;;;;;13.35;84.45;101540.22;10543917;28;20131;-59
2021/07/02 03:20:35;;;;;;;25.30;16.42;;;;;;;13.19;84.46;101548.94;10543740;28;20399;-59
2021/07/02 03:25:38;;;;;;;32.88;19.95;;;;;;;13.15;85.84;101543.94;10543147;28;20055;-59
2021/07/02 03:30:40;;;;;;;28.10;17.65;;;;;;;13.19;84.69;101551.56;10543114;28;20048;-59
2021/07/02 03:35:42;;;;;;;34.92;19.27;;;;;;;13.23;83.81;101556.66;10543579;28;20040;-59
2021/07/02 03:40:45;;;;;;;37.97;21.63;;;;;;;12.95;86.80;101563.47;10542828;28;20040;-60
2021/07/02 03:45:47;;;;;;;32.85;19.52;;;;;;;13.03;83.75;101561.25;10542095;28;20048;-60
2021/07/02 03:50:50;;;;;;;42.25;24.00;;;;;;;12.94;85.65;101559.97;10541965;28;20081;-59
2021/07/02 03:55:53;;;;;;;38.15;23.05;;;;;;;12.96;83.40;101565.13;10540819;28;20142;-59
2021/07/02 04:00:55;;;;;;;33.08;23.33;;;;;;;12.83;85.06;101563.19;10541766;28;20044;-59
2021/07/02 04:05:58;;;;;;;43.60;25.23;;;;;;;12.54;86.36;101566.53;10541903;28;20048;-60
2021/07/02 04:11:00;;;;;;;35.63;24.30;;;;;;;12.85;85.46;101572.78;10540656;28;20058;-60
2021/07/02 04:16:03;;;;;;;49.30;25.98;;;;;;;12.53;86.26;101572.75;10541277;28;20506;-59
2021/07/02 04:21:05;;;;;;;39.03;22.98;;;;;;;12.88;84.48;101580.47;10540795;28;20044;-59
2021/07/02 04:26:07;;;;;;;39.65;21.35;;;;;;;12.74;85.16;101582.09;10540952;28;20044;-61
2021/07/02 04:31:10;;;;;;;35.08;22.25;;;;;;;12.94;85.63;101574.91;10540464;28;20051;-59
2021/07/02 04:36:14;;;;;;;34.17;20.23;;;;;;;13.04;84.08;101567.34;10539119;28;20048;-59
2021/07/02 04:41:17;;;;;;;42.25;23.45;;;;;;;13.05;85.17;101575.16;10540466;28;20056;-60
2021/07/02 04:46:19;;;;;;;41.78;22.33;;;;;;;12.96;85.80;101570.41;10539989;28;20384;-59
2021/07/02 04:51:21;;;;;;;35.53;18.88;;;;;;;13.07;83.56;101575.91;10539790;28;20480;-59
2021/07/02 04:56:24;;;;;;;34.00;20.90;;;;;;;13.25;84.59;101581.94;10540234;28;20047;-59
2021/07/02 05:01:26;;;;;;;38.00;21.95;;;;;;;12.95;85.97;101574.81;10539044;28;20040;-59
2021/07/02 05:06:30;;;;;;;30.80;19.02;;;;;;;13.26;84.79;101575.72;10539425;28;20070;-59
2021/07/02 05:11:35;;;;;;;32.88;20.42;;;;;;;13.29;83.91;101564.19;10538281;28;20407;-59
2021/07/02 05:16:37;;;;;;;26.30;17.60;;;;;;;13.39;84.55;101570.66;10539180;28;20048;-59
2021/07/02 05:21:40;;;;;;;38.53;19.67;;;;;;;13.33;85.16;101568.38;10543592;28;20044;-59
2021/07/02 05:26:42;;;;;;;33.17;19.15;;;;;;;13.52;82.98;101576.91;10547854;28;20055;-60
2021/07/02 05:31:44;;;;;;;27.75;16.73;;;;;;;13.67;81.17;101571.72;10548558;28;20126;-60
2021/07/02 05:36:47;;;;;;;22.67;17.08;;;;;;;13.72;82.79;101573.13;10547556;28;20055;-59
2021/07/02 05:41:49;;;;;;;27.88;18.25;;;;;;;13.64;83.28;101572.72;10547418;28;20052;-59
2021/07/02 05:46:51;;;;;;;26.95;18.25;;;;;;;13.85;82.53;101580.31;10546601;28;20126;-59
2021/07/02 05:51:54;;;;;;;33.20;18.55;;;;;;;13.75;83.58;101575.59;10547024;28;20044;-59
2021/07/02 05:56:56;;;;;;;28.58;17.42;;;;;;;13.75;82.27;101580.00;10546621;28;20040;-59
2021/07/02 06:01:59;;;;;;;26.73;17.25;;;;;;;13.90;80.62;101578.25;10546650;28;20415;-59
2021/07/02 06:07:01;;;;;;;25.00;14.85;;;;;;;14.05;80.06;101579.97;10546644;28;20048;-59
2021/07/02 06:12:04;;;;;;;26.38;15.38;;;;;;;14.21;79.37;101586.97;10546226;28;20514;-60
2021/07/02 06:17:07;;;;;;;24.17;16.30;;;;;;;14.35;80.83;101583.50;10544771;28;20052;-60
2021/07/02 06:22:09;;;;;;;21.13;14.88;;;;;;;14.59;78.49;101584.66;10545735;28;20403;-59
2021/07/02 06:27:11;;;;;;;22.05;14.60;;;;;;;14.65;78.34;101589.53;10545603;28;20056;-59
2021/07/02 06:32:14;;;;;;;23.05;13.82;;;;;;;14.55;77.20;101588.38;10545398;28;20052;-59
2021/07/02 06:37:16;;;;;;;21.80;12.07;;;;;;;14.67;77.36;101586.81;10545304;28;20136;-59
2021/07/02 06:42:18;;;;;;;30.38;15.27;;;;;;;14.57;77.88;101588.28;10545454;28;20048;-59
2021/07/02 06:47:21;;;;;;;21.83;13.90;;;;;;;14.84;76.16;101599.81;10544707;28;20048;-60
2021/07/02 06:52:23;;;;;;;29.65;15.15;;;;;;;14.96;76.41;101590.28;10543577;28;20101;-59
2021/07/02 06:57:25;;;;;;;27.55;15.57;;;;;;;14.99;77.32;101595.34;10544194;28;20407;-59
2021/07/02 07:02:28;;;;;;;22.55;13.85;;;;;;;15.14;74.22;101595.31;10544457;28;20483;-59
2021/07/02 07:07:30;;;;;;;22.77;14.30;;;;;;;15.42;75.20;101597.84;10543813;28;20056;-59
2021/07/02 07:12:32;;;;;;;23.92;14.02;;;;;;;15.76;74.91;101603.59;10543904;28;20048;-60
2021/07/02 07:17:35;;;;;;;25.13;15.73;;;;;;;15.99;75.27;101598.56;10543421;28;20054;-59
2021/07/02 07:22:38;;;;;;;21.58;14.13;;;;;;;16.68;74.38;101607.00;10543571;28;20514;-59
2021/07/02 07:27:43;;;;;;;25.30;14.80;;;;;;;16.78;70.26;101606.34;10542863;28;20050;-60
2021/07/02 07:32:48;;;;;;;21.35;13.88;;;;;;;16.60;72.62;101604.06;10543404;28;20040;-59
2021/07/02 07:37:54;;;;;;;20.90;14.48;;;;;;;16.78;71.42;101612.50;10542585;28;20046;-63
2021/07/02 07:42:57;;;;;;;21.05;15.25;;;;;;;17.02;72.11;101611.75;10541938;28;20151;-59
2021/07/02 07:48:00;;;;;;;22.27;14.35;;;;;;;17.59;72.77;101615.53;10541791;28;20047;-60
2021/07/02 07:53:04;;;;;;;17.67;13.65;;;;;;;17.70;68.73;101614.72;10542205;28;20048;-59
2021/07/02 07:58:07;;;;;;;26.08;15.23;;;;;;;17.11;71.01;101619.00;10542004;28;20048;-60
2021/07/02 08:03:09;;;;;;;25.48;14.77;;;;;;;16.78;73.68;101622.22;10540808;28;20050;-60
2021/07/02 08:08:13;;;;;;;28.70;16.75;;;;;;;16.57;74.49;101633.34;10542037;28;20078;-60
2021/07/02 08:13:16;;;;;;;28.15;16.40;;;;;;;16.75;74.10;101627.75;10540235;28;20400;-60
2021/07/02 08:18:18;;;;;;;21.63;14.15;;;;;;;17.09;71.27;101626.22;10541186;28;20075;-60
2021/07/02 08:23:20;;;;;;;26.17;17.00;;;;;;;17.06;72.01;101629.94;10540177;28;20142;-60
2021/07/02 08:33:44;;;;;;;28.63;19.70;;;;;;;19.45;67.16;101640.03;10541402;28;20050;-60
2021/07/02 08:38:46;;;;;;;25.63;16.52;;;;;;;19.03;67.67;101630.16;10539361;28;20044;-60
2021/07/02 08:43:49;;;;;;;24.50;18.80;;;;;;;18.48;70.74;101630.00;10540920;28;20051;-60
2021/07/02 08:48:51;;;;;;;23.67;16.63;;;;;;;19.99;65.53;101622.38;10540701;28;20105;-60
2021/07/02 08:53:54;;;;;;;22.05;17.58;;;;;;;19.65;64.42;101617.16;10540950;28;20044;-60
2021/07/02 08:58:57;;;;;;;25.85;16.98;;;;;;;20.74;62.42;101618.56;10539516;28;20047;-60
2021/07/02 09:04:23;;;;;;;19.92;16.27;;;;;;;20.56;60.49;101617.47;10539868;28;20048;-60
2021/07/02 09:09:44;;;;;;;20.35;15.45;;;;;;;21.74;58.29;101626.59;10540729;28;20052;-60
2021/07/02 09:15:13;;;;;;;20.35;13.88;;;;;;;21.96;59.52;101625.47;10539589;28;20044;-60
2021/07/02 09:20:23;;;;;;;19.33;12.95;;;;;;;19.43;65.66;101629.59;10539554;28;20047;-59
2021/07/02 09:25:34;;;;;;;14.38;10.98;;;;;;;20.07;65.91;101635.81;10539648;28;20067;-60
2021/07/02 09:30:46;;;;;;;;;;;;;;;19.82;65.14;101642.34;10540032;28;20062;-60
2021/07/02 09:35:55;;;;;;;13.07;10.25;;;;;;;21.02;62.65;101629.44;10555525;28;19924;-60
2021/07/02 09:40:57;;;;;;;11.00;9.90;;;;;;;22.37;59.22;101631.44;10537825;28;20051;-61
2021/07/02 09:46:03;;;;;;;9.30;8.23;;;;;;;23.39;58.52;101641.22;10539635;28;20055;-60
2021/07/02 09:51:06;;;;;;;12.10;9.23;;;;;;;21.33;60.35;101648.00;10539526;28;20040;-60
2021/07/02 09:56:19;;;;;;;10.48;8.00;;;;;;;20.93;63.82;101660.38;10538567;28;20132;-60
2021/07/02 10:01:26;;;;;;;12.73;8.65;;;;;;;20.71;65.50;101668.53;10539248;28;20047;-61
2021/07/02 10:06:29;;;;;;;13.65;10.90;;;;;;;19.21;65.58;101667.63;10538624;28;20056;-60
2021/07/02 10:11:32;;;;;;;19.20;13.00;;;;;;;19.46;66.62;101681.59;10546563;28;20047;-60
2021/07/02 10:16:35;;;;;;;13.98;10.60;;;;;;;19.56;65.61;101685.16;10546048;28;20047;-61
2021/07/02 10:21:39;;;;;;;10.35;8.48;;;;;;;19.30;65.88;101688.13;10544824;28;20143;-60
2021/07/02 10:26:42;;;;;;;17.70;13.43;;;;;;;19.30;67.28;101688.13;10545777;28;20071;-60
2021/07/02 10:31:44;;;;;;;16.45;12.77;;;;;;;19.25;68.09;101686.84;10544635;28;20048;-60
2021/07/02 10:36:47;;;;;;;20.73;14.65;;;;;;;19.35;67.24;101698.41;10545187;28;20090;-60
2021/07/02 10:42:09;;;;;;;15.85;13.90;;;;;;;19.42;68.78;101699.56;10543831;28;20048;-60
2021/07/02 10:47:11;;;;;;;16.67;14.90;;;;;;;19.47;66.17;101694.75;10543517;28;20066;-60
2021/07/02 10:52:26;;;;;;;16.75;13.90;;;;;;;19.22;68.32;101695.03;10543377;28;20118;-61
2021/07/02 10:57:52;;;;;;;17.75;14.70;;;;;;;18.61;70.33;101711.25;10544169;28;20472;-60
2021/07/02 11:03:21;;;;;;;19.80;15.00;;;;;;;18.94;68.97;101708.66;10543492;28;20055;-60
2021/07/02 11:08:45;;;;;;;20.42;16.08;;;;;;;18.48;71.27;101711.38;10543044;28;20048;-61
2021/07/02 11:14:09;;;;;;;21.60;17.35;;;;;;;18.67;69.39;101710.78;10542592;28;20488;-60
2021/07/02 11:19:25;;;;;;;22.33;16.13;;;;;;;18.73;69.35;101708.50;10543566;28;20055;-60
2021/07/02 11:25:05;;;;;;;21.92;16.55;;;;;;;18.77;69.67;101709.13;10543745;28;20396;-61
2021/07/02 11:30:26;;;;;;;20.83;12.85;;;;;;;18.79;69.85;101716.94;10543291;28;20074;-61
2021/07/02 11:35:30;;;;;;;17.95;13.63;;;;;;;18.57;71.09;101721.25;10542667;28;20044;-61
2021/07/02 11:40:35;;;;;;;16.65;11.73;;;;;;;18.56;70.13;101715.13;10542876;28;20052;-60
2021/07/02 11:45:54;;;;;;;21.38;12.70;;;;;;;18.05;71.42;101726.03;10542875;28;20044;-60
2021/07/02 11:50:59;;;;;;;26.85;18.00;;;;;;;17.86;73.25;101715.94;10542874;28;20445;-60
2021/07/02 11:56:20;;;;;;;25.05;17.90;;;;;;;18.16;73.17;101722.59;10541014;28;20044;-61
2021/07/02 12:01:38;;;;;;;26.20;18.05;;;;;;;18.19;73.29;101723.22;10541221;28;20040;-61
2021/07/02 12:07:07;;;;;;;22.67;16.15;;;;;;;18.40;73.60;101719.06;10541356;28;20056;-61
2021/07/02 12:12:19;;;;;;;20.50;13.27;;;;;;;18.39;71.44;101718.19;10541872;28;20048;-60
2021/07/02 12:17:21;;;;;;;19.80;13.45;;;;;;;18.00;73.00;101725.53;10541390;28;20058;-60
2021/07/02 12:22:23;;;;;;;18.60;13.88;;;;;;;18.06;74.29;101721.59;10541828;28;20048;-61
2021/07/02 12:27:28;;;;;;;31.63;17.42;;;;;;;17.83;75.90;101719.66;10541245;28;20506;-61
2021/07/02 12:32:34;;;;;;;20.35;14.05;;;;;;;18.53;73.63;101714.50;10540130;28;20053;-61
2021/07/02 12:37:39;;;;;;;22.05;16.92;;;;;;;19.27;73.04;101701.66;10540628;28;20044;-61
2021/07/02 12:42:46;;;;;;;23.05;16.13;;;;;;;19.35;70.49;101709.00;10540956;28;20078;-61
2021/07/02 12:47:53;;;;;;;19.85;15.93;;;;;;;19.91;69.76;101702.72;10538956;28;20467;-61
2021/07/02 12:58:17;;;;;;;21.60;16.92;;;;;;;19.82;68.85;101701.69;10539102;28;20044;-61
2021/07/02 13:03:20;;;;;;;20.02;14.23;;;;;;;20.00;70.45;101691.31;10539162;28;20056;-61
2021/07/02 13:08:33;;;;;;;20.13;14.63;;;;;;;20.90;66.17;101687.28;10538558;28;20125;-61
2021/07/02 13:13:36;;;;;;;21.33;15.20;;;;;;;20.53;67.76;101690.41;10540035;28;20048;-61
2021/07/02 13:19:01;;;;;;;21.92;16.85;;;;;;;19.15;71.72;101684.06;10539904;28;20044;-61
2021/07/02 13:24:04;;;;;;;24.35;17.20;;;;;;;19.53;70.22;101684.59;10539864;28;20048;-61
2021/07/02 13:29:11;;;;;;;20.38;14.85;;;;;;;19.91;70.51;101684.13;10539056;28;20510;-61
2021/07/02 13:34:15;;;;;;;23.55;14.27;;;;;;;19.89;70.28;101682.53;10538267;28;20051;-61
2021/07/02 13:39:19;;;;;;;18.00;14.07;;;;;;;19.75;69.64;101684.53;10539358;28;20141;-61
2021/07/02 13:44:25;;;;;;;22.83;14.32;;;;;;;19.55;71.17;101687.94;10543895;28;20044;-62
2021/07/02 13:49:28;;;;;;;20.05;14.95;;;;;;;20.02;67.94;101677.91;10547292;28;20052;-61
2021/07/02 13:54:33;;;;;;;20.45;14.27;;;;;;;19.91;68.61;101677.97;10546830;28;20047;-61
2021/07/02 13:59:37;;;;;;;18.75;13.38;;;;;;;19.98;70.71;101687.13;10545659;28;20067;-61
2021/07/02 14:04:39;;;;;;;21.83;16.92;;;;;;;20.02;67.28;101689.41;10545980;28;20044;-62
2021/07/02 14:09:41;;;;;;;16.73;13.43;;;;;;;20.63;67.28;101687.84;10544938;28;20491;-61
2021/07/02 14:14:44;;;;;;;23.98;17.05;;;;;;;19.69;68.16;101698.31;10546218;28;20051;-61
2021/07/02 14:19:46;;;;;;;20.75;15.40;;;;;;;20.03;69.60;101712.31;10545895;28;20043;-61
2021/07/02 14:24:48;;;;;;;25.48;19.05;;;;;;;19.39;71.71;101702.47;10545770;28;20484;-61
2021/07/02 14:29:51;;;;;;;23.58;17.08;;;;;;;19.96;69.75;101707.66;10546636;28;20047;-61
2021/07/02 14:34:53;;;;;;;22.48;16.58;;;;;;;19.55;69.21;101709.19;10544073;28;20071;-61
2021/07/02 14:39:55;;;;;;;22.40;16.05;;;;;;;19.61;70.36;101717.50;10545278;28;20047;-61
2021/07/02 14:44:58;;;;;;;26.33;17.63;;;;;;;19.54;70.15;101716.34;10544968;28;20388;-61
2021/07/02 14:50:00;;;;;;;24.83;18.40;;;;;;;19.58;70.03;101711.63;10543575;28;20492;-61
2021/07/02 14:55:03;;;;;;;26.38;18.77;;;;;;;19.56;70.02;101711.72;10526465;28;20083;-61
2021/07/02 15:00:07;;;;;;;27.08;19.42;;;;;;;19.56;70.67;101719.69;10544400;28;20051;-61
2021/07/02 15:05:09;;;;;;;27.88;19.45;;;;;;;19.54;70.98;101718.16;10544176;28;20048;-61
2021/07/02 15:10:12;;;;;;;23.25;18.92;;;;;;;19.56;71.56;101724.19;10544340;28;20051;-61
2021/07/02 15:15:14;;;;;;;23.85;17.02;;;;;;;19.97;71.31;101723.50;10543453;28;20373;-61
2021/07/02 15:20:21;;;;;;;31.23;21.38;;;;;;;19.93;70.83;101729.16;10543385;28;20044;-62
2021/07/02 15:25:23;;;;;;;28.27;20.80;;;;;;;19.83;70.52;101729.91;10543905;28;20135;-61
2021/07/02 15:31:03;;;;;;;27.52;20.70;;;;;;;19.10;71.51;101734.00;10543302;28;20059;-61
2021/07/02 15:36:06;;;;;;;32.38;21.95;;;;;;;19.38;70.53;101721.19;10542845;28;20040;-61
2021/07/02 15:41:08;;;;;;;26.23;19.80;;;;;;;19.84;71.39;101730.78;10542946;28;20058;-61
2021/07/02 15:46:11;;;;;;;25.70;18.10;;;;;;;19.95;70.75;101721.91;10542463;28;20059;-61
2021/07/02 15:51:14;;;;;;;24.05;19.27;;;;;;;19.86;71.36;101723.53;10542380;28;20044;-61
2021/07/02 15:56:20;;;;;;;25.33;20.63;;;;;;;19.79;69.53;101725.00;10541334;28;20067;-61
2021/07/02 16:01:27;;;;;;;26.85;20.17;;;;;;;19.91;71.71;101720.50;10540561;28;20098;-61
2021/07/02 16:06:29;;;;;;;26.13;18.75;;;;;;;20.42;69.28;101719.75;10539669;28;20055;-61
2021/07/02 16:11:32;;;;;;;23.00;17.75;;;;;;;20.60;67.64;101714.69;10542134;28;20051;-61
2021/07/02 16:16:34;;;;;;;27.58;18.25;;;;;;;20.88;67.42;101707.84;10523260;28;20058;-61
2021/07/02 16:21:37;;;;;;;30.05;20.20;;;;;;;21.39;64.84;101707.88;10541281;28;20106;-61
2021/07/02 16:26:43;;;;;;;23.00;17.85;;;;;;;21.40;62.84;101701.56;10541123;28;20048;-61
2021/07/02 16:31:46;;;;;;;29.50;19.50;;;;;;;21.79;63.06;101688.34;10540920;28;20048;-61
2021/07/02 16:36:49;;;;;;;24.88;18.00;;;;;;;22.21;63.03;101696.03;10540598;28;20143;-61
2021/07/02 16:41:51;;;;;;;28.25;20.40;;;;;;;20.99;62.82;101690.94;10539721;28;20059;-61
2021/07/02 16:46:53;;;;;;;24.13;17.40;;;;;;;21.50;60.88;101681.13;10539018;28;20052;-61
2021/07/02 16:51:56;;;;;;;27.58;18.98;;;;;;;21.13;63.89;101676.41;10540162;28;20051;-61
2021/07/02 16:56:59;;;;;;;21.17;15.35;;;;;;;21.48;65.19;101675.94;10538763;28;20051;-61
2021/07/02 17:02:02;;;;;;;24.48;15.40;;;;;;;21.75;64.06;101678.94;10539901;28;20055;-61
2021/07/02 17:07:05;;;;;;;19.45;14.20;;;;;;;21.88;64.12;101677.66;10539508;28;20044;-62
2021/07/02 17:12:08;;;;;;;20.70;15.02;;;;;;;21.68;65.81;101679.47;10539442;28;20378;-61
2021/07/02 17:17:14;;;;;;;16.65;14.45;;;;;;;21.26;63.55;101676.16;10542441;28;20052;-61
2021/07/02 17:22:17;;;;;;;16.52;11.85;;;;;;;21.44;62.04;101679.00;10548146;28;20403;-61
2021/07/02 17:27:19;;;;;;;12.32;9.75;;;;;;;21.60;61.47;101662.50;10548013;28;20048;-61
2021/07/02 17:32:22;;;;;;;11.55;9.63;;;;;;;21.24;61.13;101662.97;10547895;28;20044;-61
2021/07/02 17:37:27;;;;;;;11.32;8.23;;;;;;;21.32;65.00;101662.31;10547739;28;20127;-61
2021/07/02 17:42:29;;;;;;;12.30;9.43;;;;;;;21.36;59.18;101662.88;10547390;28;20047;-61
2021/07/02 17:47:31;;;;;;;10.90;9.25;;;;;;;21.15;61.65;101661.16;10547971;28;20059;-61
2021/07/02 17:52:34;;;;;;;15.43;10.20;;;;;;;21.06;59.98;101656.63;10546904;28;20507;-61
2021/07/02 17:57:37;;;;;;;11.55;10.13;;;;;;;20.78;63.15;101657.25;10546474;28;20475;-61
2021/07/02 18:02:39;;;;;;;12.52;11.23;;;;;;;20.80;62.31;101643.81;10546821;28;20403;-61
2021/07/02 18:07:42;;;;;;;11.85;10.48;;;;;;;20.13;65.61;101639.78;10546096;28;20131;-61
2021/07/02 18:12:49;;;;;;;11.48;9.82;;;;;;;20.06;65.33;101647.44;10547007;28;20047;-61
2021/07/02 18:17:52;;;;;;;13.50;9.15;;;;;;;19.70;68.24;101636.22;10544767;28;20044;-61
2021/07/02 18:22:54;;;;;;;13.43;9.60;;;;;;;19.59;69.87;101639.78;10545245;28;20044;-61
2021/07/02 18:27:57;;;;;;;14.60;10.77;;;;;;;19.21;72.88;101638.44;10545068;28;20415;-61
2021/07/02 18:33:04;;;;;;;53.20;23.98;;;;;;;19.04;74.49;101637.13;10545865;28;20040;-61
2021/07/02 18:38:07;;;;;;;14.07;9.80;;;;;;;19.04;73.08;101637.13;10527568;28;20051;-61
2021/07/02 18:43:09;;;;;;;13.93;12.15;;;;;;;18.73;75.14;101636.06;10545200;28;20048;-61
2021/07/02 18:48:11;;;;;;;14.20;11.18;;;;;;;18.49;77.18;101639.66;10543835;28;20058;-61
2021/07/02 18:53:15;;;;;;;14.95;10.60;;;;;;;18.28;77.20;101636.00;10544677;28;20051;-61
2021/07/02 18:58:17;;;;;;;13.18;10.43;;;;;;;18.28;76.77;101638.66;10543961;28;20052;-61
2021/07/02 19:03:19;;;;;;;17.00;11.90;;;;;;;18.20;76.86;101634.78;10543217;28;20056;-61
2021/07/02 19:08:22;;;;;;;16.27;12.43;;;;;;;17.82;78.63;101638.50;10544421;28;20059;-61
2021/07/02 19:13:24;;;;;;;18.67;11.15;;;;;;;17.81;79.33;101636.81;10543847;28;20052;-61
2021/07/02 19:18:26;;;;;;;15.98;10.73;;;;;;;17.55;80.08;101643.19;10542446;28;20553;-61
2021/07/02 19:23:29;;;;;;;18.27;12.35;;;;;;;17.34;81.09;101645.63;10543948;28;20044;-61
2021/07/02 19:28:31;;;;;;;12.60;10.73;;;;;;;17.24;80.46;101651.56;10543301;28;20411;-61
2021/07/02 19:33:34;;;;;;;12.07;10.77;;;;;;;17.08;80.97;101643.91;10543613;28;20055;-61
2021/07/02 19:38:36;;;;;;;13.48;10.85;;;;;;;16.87;81.56;101656.81;10542711;28;20059;-61
2021/07/02 19:43:38;;;;;;;27.63;14.55;;;;;;;16.58;82.44;101655.38;10542822;28;20044;-61
2021/07/02 19:48:41;;;;;;;49.80;21.60;;;;;;;16.39;83.03;101664.56;10524587;28;20055;-60
2021/07/02 19:53:44;;;;;;;24.23;15.40;;;;;;;16.27;83.21;101670.66;10542201;28;20054;-61
2021/07/02 19:58:47;;;;;;;47.47;22.30;;;;;;;16.26;83.28;101669.81;10542320;28;20055;-61
2021/07/02 20:03:54;;;;;;;16.10;11.25;;;;;;;16.09;83.39;101688.63;10524876;28;20079;-61
2021/07/02 20:08:56;;;;;;;14.98;10.52;;;;;;;15.97;83.63;101688.47;10541825;28;20048;-61
2021/07/02 20:13:59;;;;;;;14.15;11.45;;;;;;;15.83;83.67;101691.16;10541710;28;20110;-60
2021/07/02 20:19:01;;;;;;;19.67;11.15;;;;;;;15.74;84.31;101691.75;10539908;28;20052;-61
2021/07/02 20:24:04;;;;;;;14.23;10.75;;;;;;;15.65;84.33;101703.75;10541265;28;20048;-61
2021/07/02 20:29:06;;;;;;;18.08;12.95;;;;;;;15.55;85.17;101702.63;10540129;28;20047;-61
2021/07/02 20:34:10;;;;;;;20.27;13.00;;;;;;;15.46;85.80;101709.34;10540862;28;20048;-60
2021/07/02 20:39:13;;;;;;;18.80;12.82;;;;;;;15.36;85.67;101700.31;10540601;28;20055;-60
2021/07/02 20:44:16;;;;;;;20.55;14.57;;;;;;;15.30;85.18;101695.41;10539465;28;20055;-61
2021/07/02 20:49:18;;;;;;;18.83;13.13;;;;;;;15.21;85.57;101687.16;10540245;28;20059;-60
2021/07/02 20:54:21;;;;;;;16.63;13.45;;;;;;;15.26;85.29;101694.75;10539572;28;20059;-60
2021/07/02 20:59:23;;;;;;;17.35;13.50;;;;;;;15.13;86.81;101688.56;10539994;28;20043;-60
2021/07/02 21:04:26;;;;;;;22.63;14.95;;;;;;;15.04;86.43;101687.34;10539851;28;20395;-61
2021/07/02 21:09:28;;;;;;;22.60;15.27;;;;;;;14.93;85.72;101690.66;10539533;28;20070;-60
2021/07/02 21:14:31;;;;;;;18.27;14.23;;;;;;;14.83;86.84;101681.63;10539645;28;20135;-60
2021/07/02 21:19:33;;;;;;;21.48;15.27;;;;;;;14.85;86.17;101687.66;10539951;28;20044;-60
2021/07/02 21:24:36;;;;;;;20.38;15.02;;;;;;;14.87;84.82;101685.75;10539092;28;20078;-60
2021/07/02 21:29:38;;;;;;;22.33;15.18;;;;;;;14.79;85.53;101686.25;10539193;28;20059;-60
2021/07/02 21:34:41;;;;;;;21.35;15.52;;;;;;;14.72;86.33;101679.63;10539600;28;20055;-60
2021/07/02 21:39:43;;;;;;;25.20;17.08;;;;;;;14.57;87.20;101684.00;10539441;28;20047;-60
2021/07/02 21:44:46;;;;;;;21.13;17.08;;;;;;;14.56;86.65;101671.78;10537820;28;20131;-60
2021/07/02 21:49:48;;;;;;;30.45;18.40;;;;;;;14.67;86.05;101671.16;10539416;28;20056;-60
2021/07/02 21:54:50;;;;;;;24.63;17.27;;;;;;;14.68;86.76;101670.22;10539368;28;20051;-60
2021/07/02 21:59:53;;;;;;;26.13;18.90;;;;;;;14.45;87.49;101668.94;10539071;28;20040;-60
2021/07/02 22:04:55;;;;;;;27.90;18.33;;;;;;;14.39;87.11;101672.78;10542669;28;20044;-60
2021/07/02 22:09:58;;;;;;;26.20;17.17;;;;;;;14.35;87.55;101666.00;10547116;28;20044;-60
2021/07/02 22:15:00;;;;;;;27.58;17.95;;;;;;;14.24;86.95;101671.91;10546236;28;20515;-60
2021/07/02 22:20:03;;;;;;;27.13;16.42;;;;;;;14.26;85.55;101666.56;10546079;28;20044;-60
2021/07/02 22:25:07;;;;;;;27.92;18.08;;;;;;;14.19;86.92;101665.19;10528111;28;20059;-60
2021/07/02 22:30:10;;;;;;;24.95;17.23;;;;;;;14.22;85.45;101665.91;10546245;28;20051;-60
2021/07/02 22:35:13;;;;;;;25.95;16.88;;;;;;;14.18;86.81;101669.63;10545380;28;20046;-60
2021/07/02 22:40:15;;;;;;;36.80;18.33;;;;;;;14.23;86.92;101675.47;10543883;28;20044;-60
2021/07/02 22:45:18;;;;;;;22.15;14.93;;;;;;;14.16;86.68;101673.31;10545253;28;20048;-60
2021/07/02 22:50:20;;;;;;;32.38;19.80;;;;;;;14.18;87.17;101663.53;10545088;28;20052;-60
2021/07/02 22:55:22;;;;;;;27.80;16.70;;;;;;;14.05;87.13;101663.38;10544812;28;20052;-60
2021/07/02 23:00:25;;;;;;;26.88;16.17;;;;;;;13.75;87.87;101669.47;10543226;28;20047;-60